Time;durP1;ratioP1;P1;durP2;ratioP2;P2;SDS_P1;SDS_P2;PMS_P1;PMS_P2;Temp;Humidity;BMP_temperature;BMP_pressure;BME280_temperature;BME280_humidity;BME280_pressure;Samples;Min_cycle;Max_cycle;Signal;HPM_P1;HPM_P2
2023/03/23 00:01:14;;;;;;;21.55;16.10;;;9.80;99.90;;;;;;5078598;28;20083;-69
2023/03/23 00:03:41;;;;;;;19.85;15.70;;;9.90;99.90;;;;;;5074693;28;20094;-68
2023/03/23 00:06:07;;;;;;;17.33;12.57;;;9.80;99.90;;;;;;5078775;28;20036;-69
2023/03/23 00:08:37;;;;;;;15.10;12.63;;;9.80;99.90;;;;;;5030083;28;20101;-67
2023/03/23 00:11:04;;;;;;;15.00;12.95;;;10.30;99.90;;;;;;5065259;28;20039;-69
2023/03/23 00:13:31;;;;;;;17.98;13.98;;;10.70;99.90;;;;;;5060715;28;20488;-68
2023/03/23 00:15:59;;;;;;;12.55;11.25;;;9.80;99.90;;;;;;5076084;28;20040;-69
2023/03/23 00:18:25;;;;;;;16.52;13.88;;;10.40;99.90;;;;;;5064626;28;20255;-69
2023/03/23 00:20:53;;;;;;;13.00;11.35;;;10.70;99.90;;;;;;5074746;28;20147;-68
2023/03/23 00:23:22;;;;;;;13.70;11.95;;;10.30;99.90;;;;;;5079547;28;20524;-70
2023/03/23 00:25:52;;;;;;;19.92;16.92;;;10.70;99.90;;;;;;5074924;28;20052;-69
2023/03/23 00:28:24;;;;;;;21.55;19.02;;;10.80;99.90;;;;;;5073201;28;20429;-69
2023/03/23 00:31:09;;;;;;;25.90;21.58;;;10.20;99.90;;;;;;5079198;28;20050;-69
2023/03/23 00:33:43;;;;;;;26.48;23.65;;;10.80;99.90;;;;;;5073527;28;20043;-69
2023/03/23 00:36:09;;;;;;;;;;;10.80;99.90;;;;;;5082014;28;20128;-69
2023/03/23 00:38:35;;;;;;;31.77;25.33;;;10.80;99.90;;;;;;5071234;28;19986;-65
2023/03/23 00:41:05;;;;;;;35.95;28.20;;;10.10;99.90;;;;;;5079410;28;20056;-65
2023/03/23 00:43:32;;;;;;;33.15;27.00;;;10.70;99.90;;;;;;5088534;28;20035;-65
2023/03/23 00:46:00;;;;;;;34.65;28.73;;;10.10;99.90;;;;;;5086888;28;20054;-67
2023/03/23 00:48:27;;;;;;;32.83;27.45;;;10.10;99.90;;;;;;5077049;28;20101;-64
2023/03/23 00:50:53;;;;;;;15.93;12.93;;;10.20;99.90;;;;;;5087687;28;20044;-65
2023/03/23 00:53:19;;;;;;;10.65;8.18;;;10.90;99.90;;;;;;5092490;28;20063;-67
2023/03/23 00:55:47;;;;;;;10.88;8.85;;;10.60;99.90;;;;;;5088906;28;20278;-66
2023/03/23 00:58:14;;;;;;;11.63;9.65;;;10.10;99.90;;;;;;5087608;28;20089;-65
2023/03/23 01:00:40;;;;;;;11.75;10.55;;;10.00;99.90;;;;;;5068790;28;20568;-68
2023/03/23 01:03:08;;;;;;;16.20;14.55;;;10.00;99.90;;;;;;5072479;28;20533;-65
2023/03/23 01:05:38;;;;;;;17.52;15.43;;;9.80;99.90;;;;;;5080539;28;20050;-67
2023/03/23 01:08:05;;;;;;;19.70;17.15;;;10.30;99.90;;;;;;5078214;28;20035;-68
2023/03/23 01:10:32;;;;;;;21.92;17.70;;;10.70;99.90;;;;;;5081368;28;20493;-67
2023/03/23 01:13:01;;;;;;;23.60;19.65;;;10.40;99.90;;;;;;5056184;28;20587;-67
2023/03/23 01:15:28;;;;;;;25.33;21.27;;;10.80;99.90;;;;;;5078737;28;20078;-67
2023/03/23 01:17:54;;;;;;;28.38;22.35;;;10.70;99.90;;;;;;5066375;28;20039;-67
2023/03/23 01:20:20;;;;;;;26.40;22.88;;;10.80;99.90;;;;;;5080590;28;20051;-67
2023/03/23 01:22:46;;;;;;;31.35;23.55;;;9.90;99.90;;;;;;5077548;28;20048;-70
2023/03/23 01:25:12;;;;;;;29.20;24.70;;;10.30;99.90;;;;;;5083592;28;20711;-70
2023/03/23 01:27:39;;;;;;;26.83;20.63;;;10.00;99.90;;;;;;5083403;28;20114;-69
2023/03/23 01:30:07;;;;;;;16.90;14.95;;;10.50;99.90;;;;;;5065747;28;20046;-69
2023/03/23 01:32:33;;;;;;;11.75;9.80;;;9.90;99.90;;;;;;5079277;28;20047;-70
2023/03/23 01:34:59;;;;;;;12.38;7.78;;;9.80;99.90;;;;;;5084003;28;20207;-68
2023/03/23 01:37:26;;;;;;;8.43;5.53;;;10.50;99.90;;;;;;5081206;28;20040;-68
2023/03/23 01:39:55;;;;;;;6.05;4.97;;;9.90;99.90;;;;;;5078076;28;20079;-67
2023/03/23 01:42:23;;;;;;;3.80;3.40;;;10.40;99.90;;;;;;5082495;28;20059;-67
2023/03/23 01:44:49;;;;;;;3.42;2.85;;;9.30;99.90;;;;;;5085918;28;20572;-67
2023/03/23 01:47:16;;;;;;;4.28;3.38;;;10.10;99.90;;;;;;5078944;28;20107;-67
2023/03/23 01:49:48;;;;;;;5.85;3.10;;;9.10;99.90;;;;;;5083969;28;20312;-68
2023/03/23 01:52:17;;;;;;;5.47;3.13;;;9.20;99.90;;;;;;5079731;28;20051;-68
2023/03/23 01:54:45;;;;;;;4.68;2.60;;;10.00;99.90;;;;;;5072590;28;20047;-67
2023/03/23 01:57:15;;;;;;;4.13;2.45;;;9.10;99.90;;;;;;5064330;28;20653;-67
2023/03/23 01:59:45;;;;;;;3.67;2.20;;;9.20;99.90;;;;;;5082051;28;20047;-67
2023/03/23 02:02:12;;;;;;;5.38;2.70;;;9.70;99.90;;;;;;5082011;28;20315;-67
2023/03/23 02:04:39;;;;;;;4.22;2.78;;;10.00;99.90;;;;;;5063422;28;20405;-67
2023/03/23 02:07:06;;;;;;;8.32;4.22;;;9.00;99.90;;;;;;5075542;28;20230;-66
2023/03/23 02:09:31;;;;;;;8.10;5.22;;;9.10;99.90;;;;;;5066421;28;20044;-67
2023/03/23 02:11:57;;;;;;;8.48;6.18;;;9.30;99.90;;;;;;5080871;28;20036;-68
2023/03/23 02:14:25;;;;;;;10.35;7.57;;;9.20;99.90;;;;;;5081984;28;20063;-67
2023/03/23 02:17:10;;;;;;;13.05;8.35;;;9.30;99.90;;;;;;5080300;28;20399;-66
2023/03/23 02:20:13;;;;;;;12.77;9.60;;;9.40;99.90;;;;;;5080324;28;20048;-67
2023/03/23 02:23:13;;;;;;;13.73;9.65;;;10.30;99.90;;;;;;5081620;28;20048;-67
2023/03/23 02:25:53;;;;;;;16.58;10.07;;;10.30;99.90;;;;;;5079544;28;20048;-68
2023/03/23 02:28:39;;;;;;;12.95;9.27;;;9.80;99.90;;;;;;5064315;28;20191;-67
2023/03/23 02:31:38;;;;;;;16.00;9.23;;;10.40;99.90;;;;;;5063688;28;20039;-67
2023/03/23 02:34:26;;;;;;;14.35;8.50;;;10.50;99.90;;;;;;5080450;28;20043;-68
2023/03/23 02:37:18;;;;;;;11.63;7.63;;;10.70;99.90;;;;;;5062751;28;20790;-69
2023/03/23 02:39:49;;;;;;;11.93;7.45;;;9.90;99.90;;;;;;5082042;28;20048;-66
2023/03/23 02:42:31;;;;;;;13.45;7.20;;;9.90;99.90;;;;;;5085720;28;20130;-67
2023/03/23 02:45:03;;;;;;;9.33;6.67;;;10.20;99.90;;;;;;5083966;28;20287;-67
2023/03/23 02:47:30;;;;;;;10.18;6.03;;;10.80;99.90;;;;;;5062050;28;20686;-66
2023/03/23 02:49:58;;;;;;;11.35;6.22;;;10.00;99.90;;;;;;5062457;28;20043;-67
2023/03/23 02:52:32;;;;;;;8.63;5.40;;;10.20;99.90;;;;;;5063115;28;20046;-67
2023/03/23 02:55:00;;;;;;;10.48;5.65;;;10.90;99.90;;;;;;5062861;28;20120;-67
2023/03/23 02:57:27;;;;;;;10.48;5.40;;;10.80;99.90;;;;;;5076540;28;20111;-66
2023/03/23 02:59:53;;;;;;;10.75;5.43;;;10.20;99.90;;;;;;5079069;28;20683;-67
2023/03/23 03:02:26;;;;;;;9.32;4.90;;;10.20;99.90;;;;;;5061672;28;20611;-67
2023/03/23 03:05:03;;;;;;;8.68;4.60;;;10.40;99.90;;;;;;5076217;28;20051;-67
2023/03/23 03:07:36;;;;;;;8.20;4.75;;;10.80;99.90;;;;;;5054649;28;20036;-68
2023/03/23 03:10:16;;;;;;;10.80;4.38;;;9.90;99.90;;;;;;5058476;28;20373;-68
2023/03/23 03:13:07;;;;;;;6.35;3.75;;;10.80;99.90;;;;;;5057594;28;20557;-68
2023/03/23 03:15:41;;;;;;;6.22;4.20;;;10.70;99.90;;;;;;5061034;28;20040;-67
2023/03/23 03:18:35;;;;;;;7.40;4.10;;;10.00;99.90;;;;;;5071974;28;20564;-67
2023/03/23 03:21:08;;;;;;;5.88;3.67;;;10.00;99.90;;;;;;5076173;28;20044;-68
2023/03/23 03:23:35;;;;;;;10.55;3.92;;;10.80;99.90;;;;;;5078319;28;20498;-67
2023/03/23 03:26:04;;;;;;;5.72;3.63;;;10.10;99.90;;;;;;5077418;28;20047;-66
2023/03/23 03:28:32;;;;;;;9.70;3.90;;;10.10;99.90;;;;;;5079792;28;20036;-67
2023/03/23 03:31:01;;;;;;;11.00;3.85;;;10.80;99.90;;;;;;5073392;28;20044;-67
2023/03/23 03:33:30;;;;;;;5.57;3.17;;;11.00;99.90;;;;;;5083833;28;20474;-67
2023/03/23 03:35:59;;;;;;;5.75;2.90;;;10.90;99.90;;;;;;5061621;28;20717;-67
2023/03/23 03:38:25;;;;;;;9.10;3.67;;;10.20;99.90;;;;;;5078470;28;20287;-66
2023/03/23 03:40:52;;;;;;;10.90;3.80;;;10.80;99.90;;;;;;5060528;28;20044;-67
2023/03/23 03:43:17;;;;;;;9.45;3.90;;;10.80;99.90;;;;;;5073749;28;20525;-67
2023/03/23 03:45:44;;;;;;;6.88;3.45;;;10.50;99.90;;;;;;5078465;28;20032;-67
2023/03/23 03:48:10;;;;;;;8.00;3.63;;;10.20;99.90;;;;;;5080662;28;20039;-67
2023/03/23 03:50:36;;;;;;;7.70;3.13;;;10.10;99.90;;;;;;5080084;28;20942;-69
2023/03/23 03:53:01;;;;;;;8.52;3.47;;;10.30;99.90;;;;;;5063654;28;20043;-68
2023/03/23 03:55:27;;;;;;;7.78;3.58;;;10.30;99.90;;;;;;5063990;28;20070;-68
2023/03/23 03:57:57;;;;;;;7.60;3.33;;;10.30;99.90;;;;;;5045786;28;20585;-69
2023/03/23 04:00:23;;;;;;;6.43;3.53;;;10.80;99.90;;;;;;5081237;28;20040;-69
2023/03/23 04:02:54;;;;;;;7.47;3.33;;;10.70;99.90;;;;;;5059083;28;21079;-69
2023/03/23 04:05:22;;;;;;;5.03;2.90;;;10.90;99.90;;;;;;5083415;28;20296;-68
2023/03/23 04:07:51;;;;;;;6.25;3.15;;;10.60;99.90;;;;;;5078656;28;20436;-68
2023/03/23 04:10:21;;;;;;;7.43;3.15;;;10.50;99.90;;;;;;5061808;28;20256;-67
2023/03/23 04:12:50;;;;;;;8.68;3.92;;;10.90;99.90;;;;;;5080188;28;20052;-67
2023/03/23 04:15:15;;;;;;;5.90;3.05;;;10.70;99.90;;;;;;5084384;28;20058;-67
2023/03/23 04:17:42;;;;;;;7.55;3.22;;;10.80;99.90;;;;;;5083122;28;20051;-65
2023/03/23 04:20:17;;;;;;;7.65;3.08;;;10.60;99.90;;;;;;5077017;28;20040;-67
2023/03/23 04:22:44;;;;;;;9.18;3.15;;;10.70;99.90;;;;;;5080779;28;20043;-66
2023/03/23 04:25:12;;;;;;;6.93;3.25;;;10.10;99.90;;;;;;5085509;28;20040;-66
2023/03/23 04:27:39;;;;;;;10.70;3.72;;;10.60;99.90;;;;;;5091920;28;20047;-65
2023/03/23 04:30:06;;;;;;;10.38;4.25;;;9.90;99.90;;;;;;5089245;28;20035;-68
2023/03/23 04:32:31;;;;;;;8.40;3.65;;;10.10;99.90;;;;;;5075997;28;20043;-67
2023/03/23 04:35:01;;;;;;;8.00;3.90;;;10.50;99.90;;;;;;5093394;28;20044;-66
2023/03/23 04:37:28;;;;;;;6.88;3.50;;;10.10;99.90;;;;;;5071081;28;20508;-66
2023/03/23 04:40:00;;;;;;;5.95;2.83;;;10.40;99.90;;;;;;5087799;28;20110;-67
2023/03/23 04:42:31;;;;;;;3.42;1.58;;;10.50;99.90;;;;;;5092200;28;20056;-66
2023/03/23 04:44:57;;;;;;;3.97;1.35;;;10.30;99.90;;;;;;5072720;28;20046;-67
2023/03/23 04:47:24;;;;;;;3.45;0.90;;;9.60;99.90;;;;;;5071580;28;20040;-66
2023/03/23 04:49:51;;;;;;;3.38;0.70;;;9.50;99.90;;;;;;5067197;28;20268;-67
2023/03/23 04:52:17;;;;;;;4.00;0.70;;;10.10;99.90;;;;;;5090184;28;20394;-65
2023/03/23 04:54:44;;;;;;;4.85;1.00;;;10.00;99.90;;;;;;5069811;28;20554;-67
2023/03/23 04:57:09;;;;;;;3.33;0.90;;;10.10;99.90;;;;;;5072918;28;20040;-66
2023/03/23 04:59:35;;;;;;;4.95;0.70;;;9.70;99.90;;;;;;5091462;28;20394;-66
2023/03/23 05:02:01;;;;;;;3.90;0.70;;;9.60;99.90;;;;;;5070099;28;20036;-66
2023/03/23 05:04:27;;;;;;;3.08;0.50;;;9.20;99.90;;;;;;5103627;27;20083;-65
2023/03/23 05:06:52;;;;;;;3.47;0.47;;;9.10;99.90;;;;;;5090642;28;20047;-65
2023/03/23 05:09:19;;;;;;;3.97;0.40;;;9.30;99.90;;;;;;5091670;28;20333;-65
2023/03/23 05:11:45;;;;;;;4.03;0.35;;;9.60;99.90;;;;;;5092762;28;20036;-66
2023/03/23 05:14:10;;;;;;;3.50;0.30;;;9.10;99.90;;;;;;5087129;28;20040;-68
2023/03/23 05:16:37;;;;;;;3.40;0.40;;;9.60;99.90;;;;;;5069727;28;20270;-65
2023/03/23 05:19:04;;;;;;;4.93;0.68;;;9.10;99.90;;;;;;5082140;28;20485;-65
2023/03/23 05:21:31;;;;;;;5.22;0.50;;;9.10;99.90;;;;;;5080651;28;20641;-66
2023/03/23 05:24:00;;;;;;;5.93;0.55;;;9.60;99.90;;;;;;5086690;28;20586;-68
2023/03/23 05:26:28;;;;;;;5.40;0.68;;;9.70;99.90;;;;;;5090302;28;20047;-66
2023/03/23 05:28:58;;;;;;;6.22;0.80;;;9.50;99.90;;;;;;5090598;27;20483;-66
2023/03/23 05:31:24;;;;;;;5.97;0.77;;;9.70;99.90;;;;;;5093966;28;20111;-65
2023/03/23 05:33:51;;;;;;;7.13;0.60;;;9.20;99.90;;;;;;5091287;27;20251;-67
2023/03/23 05:36:17;;;;;;;6.90;0.93;;;9.30;99.90;;;;;;5072228;28;20043;-66
2023/03/23 05:38:45;;;;;;;9.07;0.90;;;10.00;99.90;;;;;;5088728;28;20184;-66
2023/03/23 05:41:16;;;;;;;6.15;1.10;;;9.80;99.90;;;;;;5064053;28;20644;-66
2023/03/23 05:43:42;;;;;;;9.98;1.42;;;10.10;99.90;;;;;;5090576;28;20113;-66
2023/03/23 05:46:09;;;;;;;7.43;1.10;;;9.70;99.90;;;;;;5084889;28;21128;-65
2023/03/23 05:48:36;;;;;;;11.73;1.40;;;10.00;99.90;;;;;;5092072;28;20477;-64
2023/03/23 05:51:02;;;;;;;10.30;1.48;;;9.70;99.90;;;;;;5067530;28;20036;-67
2023/03/23 05:53:29;;;;;;;10.43;2.25;;;9.80;99.90;;;;;;5072667;28;20349;-66
2023/03/23 05:55:59;;;;;;;10.40;2.08;;;10.30;99.90;;;;;;5088938;28;20055;-65
2023/03/23 05:58:25;;;;;;;13.05;1.90;;;10.40;99.90;;;;;;5090291;28;20627;-66
2023/03/23 06:00:51;;;;;;;9.75;2.17;;;9.90;99.90;;;;;;5084001;28;20086;-66
2023/03/23 06:03:16;;;;;;;10.45;2.33;;;10.30;99.90;;;;;;5089033;28;20438;-68
2023/03/23 06:05:46;;;;;;;12.57;1.98;;;10.50;99.90;;;;;;5086848;28;20588;-67
2023/03/23 06:08:12;;;;;;;15.45;2.38;;;10.60;99.90;;;;;;5084031;28;20070;-65
2023/03/23 06:10:38;;;;;;;9.50;1.73;;;10.50;99.90;;;;;;5086520;28;20059;-66
2023/03/23 06:13:05;;;;;;;16.95;2.63;;;10.30;99.90;;;;;;5034298;28;20031;-66
2023/03/23 06:15:32;;;;;;;16.08;2.67;;;10.70;99.90;;;;;;5087080;28;20128;-66
2023/03/23 06:18:02;;;;;;;14.43;2.15;;;10.70;99.90;;;;;;5067991;28;20103;-66
2023/03/23 06:20:28;;;;;;;18.38;2.80;;;10.30;99.90;;;;;;5082837;28;20092;-65
2023/03/23 06:22:55;;;;;;;11.10;2.58;;;10.60;99.90;;;;;;5067031;28;20054;-66
2023/03/23 06:25:22;;;;;;;16.88;2.45;;;10.50;99.90;;;;;;5084422;28;20533;-67
2023/03/23 06:27:48;;;;;;;15.40;1.90;;;10.60;99.90;;;;;;5087391;28;20039;-66
2023/03/23 06:30:17;;;;;;;14.43;2.00;;;10.80;99.90;;;;;;5087443;28;20039;-66
2023/03/23 06:32:46;;;;;;;20.15;2.28;;;10.40;99.90;;;;;;5084827;28;20040;-67
2023/03/23 06:35:12;;;;;;;16.08;2.30;;;10.60;99.90;;;;;;5089091;28;20259;-67
2023/03/23 06:37:39;;;;;;;17.85;2.40;;;10.60;99.90;;;;;;5089769;28;20266;-66
2023/03/23 06:40:06;;;;;;;17.83;2.80;;;10.60;99.90;;;;;;5093435;28;20078;-67
2023/03/23 06:42:32;;;;;;;19.92;2.53;;;10.60;99.90;;;;;;5083181;28;20191;-68
2023/03/23 06:45:00;;;;;;;23.85;2.92;;;10.80;99.90;;;;;;5086191;28;20426;-67
2023/03/23 06:47:26;;;;;;;13.02;1.98;;;10.50;99.90;;;;;;5082347;28;20395;-66
2023/03/23 06:49:52;;;;;;;21.92;3.05;;;10.60;88.70;;;;;;5080261;28;20044;-67
2023/03/23 06:52:18;;;;;;;20.65;2.22;;;10.50;33.60;;;;;;5047538;28;20067;-67
2023/03/23 06:54:44;;;;;;;17.10;2.15;;;10.40;1.00;;;;;;5084269;28;20231;-66
2023/03/23 06:57:10;;;;;;;16.13;2.78;;;10.60;41.10;;;;;;5083887;28;20066;-67
2023/03/23 06:59:35;;;;;;;13.45;2.25;;;10.40;1.00;;;;;;5066678;28;20707;-69
2023/03/23 07:02:02;;;;;;;16.55;2.28;;;10.50;1.00;;;;;;5081679;28;20376;-69
2023/03/23 07:04:27;;;;;;;16.65;2.08;;;10.40;99.90;;;;;;5079765;28;20044;-70
2023/03/23 07:06:53;;;;;;;14.70;1.73;;;10.70;99.90;;;;;;5081533;28;20126;-70
2023/03/23 07:09:19;;;;;;;15.52;1.70;;;10.60;1.00;;;;;;5080321;28;20068;-69
2023/03/23 07:11:47;;;;;;;14.38;1.60;;;10.60;99.90;;;;;;5044611;28;20155;-69
2023/03/23 07:14:13;;;;;;;11.27;1.38;;;10.70;99.90;;;;;;5059079;28;20048;-69
2023/03/23 07:16:39;;;;;;;12.32;1.27;;;10.60;99.90;;;;;;5074679;28;20050;-70
2023/03/23 07:19:04;;;;;;;6.05;0.77;;;10.70;99.90;;;;;;5077836;28;20040;-70
2023/03/23 07:21:31;;;;;;;11.20;1.08;;;10.70;19.40;;;;;;5075106;28;20092;-69
2023/03/23 07:23:56;;;;;;;8.73;1.00;;;10.70;18.90;;;;;;5077544;28;20058;-70
2023/03/23 07:26:22;;;;;;;7.97;0.70;;;10.60;99.90;;;;;;5057593;28;20057;-69
2023/03/23 07:28:48;;;;;;;5.63;0.90;;;10.50;1.00;;;;;;5057903;28;20511;-68
2023/03/23 07:31:14;;;;;;;7.45;0.90;;;10.50;97.20;;;;;;5076322;28;20321;-69
2023/03/23 07:33:39;;;;;;;8.15;0.52;;;10.40;1.00;;;;;;5080151;28;20047;-68
2023/03/23 07:36:06;;;;;;;9.38;0.95;;;10.50;1.00;;;;;;5064779;28;20047;-69
2023/03/23 07:38:31;;;;;;;11.52;1.67;;;10.50;65.40;;;;;;5082859;28;20042;-68
2023/03/23 07:40:58;;;;;;;12.13;1.35;;;10.50;99.90;;;;;;5080888;28;20036;-69
2023/03/23 07:43:23;;;;;;;7.20;1.13;;;10.40;96.70;;;;;;5080333;28;20077;-70
2023/03/23 07:45:49;;;;;;;11.38;1.13;;;10.40;99.90;;;;;;5048573;28;20416;-68
2023/03/23 07:48:15;;;;;;;13.55;1.58;;;10.40;23.00;;;;;;5077459;28;20040;-69
2023/03/23 07:50:41;;;;;;;12.88;1.58;;;10.60;86.80;;;;;;5074572;28;20187;-68
2023/03/23 07:53:07;;;;;;;13.45;1.92;;;10.70;99.90;;;;;;5081162;28;20039;-68
2023/03/23 07:55:33;;;;;;;13.38;1.83;;;11.00;1.00;;;;;;5080554;28;20050;-69
2023/03/23 07:57:59;;;;;;;14.75;2.38;;;11.50;99.90;;;;;;5085480;28;20076;-68
2023/03/23 08:00:25;;;;;;;13.45;1.88;;;11.80;99.90;;;;;;5064822;28;20152;-69
2023/03/23 08:02:55;;;;;;;16.67;2.47;;;11.90;99.90;;;;;;5087586;28;20122;-68
2023/03/23 08:05:23;;;;;;;19.95;2.53;;;11.70;99.90;;;;;;5072922;28;20434;-68
2023/03/23 08:07:49;;;;;;;16.70;2.13;;;11.40;99.90;;;;;;5080118;28;20056;-69
2023/03/23 08:10:22;;;;;;;20.40;2.40;;;11.40;99.90;;;;;;5059376;28;20050;-69
2023/03/23 08:12:52;;;;;;;20.33;2.72;;;11.50;99.90;;;;;;5064075;28;20060;-69
2023/03/23 08:15:19;;;;;;;20.15;2.45;;;11.30;99.90;;;;;;5082082;28;20071;-69
2023/03/23 08:17:44;;;;;;;22.05;2.88;;;11.30;99.90;;;;;;5058834;28;20043;-68
2023/03/23 08:20:14;;;;;;;23.27;3.10;;;11.40;99.90;;;;;;5061876;28;20533;-68
2023/03/23 08:22:42;;;;;;;21.10;2.72;;;11.40;99.90;;;;;;5082094;28;20459;-69
2023/03/23 08:25:10;;;;;;;20.70;2.67;;;11.30;99.90;;;;;;5063343;28;20234;-69
2023/03/23 08:27:36;;;;;;;29.42;4.10;;;11.40;99.90;;;;;;5080260;28;20614;-68
2023/03/23 08:30:05;;;;;;;22.58;3.47;;;11.40;99.90;;;;;;5055146;28;20933;-68
2023/03/23 08:32:31;;;;;;;23.00;3.65;;;11.50;99.90;;;;;;5084630;28;20123;-66
2023/03/23 08:34:57;;;;;;;23.58;3.42;;;11.50;99.90;;;;;;5077695;28;20136;-66
2023/03/23 08:37:23;;;;;;;24.23;3.15;;;11.60;99.90;;;;;;5063786;28;20392;-66
2023/03/23 08:39:54;;;;;;;23.20;3.20;;;11.80;75.60;;;;;;5080048;28;20100;-66
2023/03/23 08:42:20;;;;;;;26.77;3.80;;;12.20;99.90;;;;;;5059625;28;20047;-66
2023/03/23 08:44:46;;;;;;;20.60;3.35;;;12.40;99.90;;;;;;5082007;28;20328;-66
2023/03/23 08:47:11;;;;;;;19.55;3.00;;;12.40;99.90;;;;;;5083357;28;20066;-66
2023/03/23 08:49:37;;;;;;;19.40;2.90;;;12.40;99.90;;;;;;5063557;28;20036;-66
2023/03/23 08:52:03;;;;;;;19.00;2.70;;;12.30;99.90;;;;;;5077558;28;20409;-66
2023/03/23 08:54:31;;;;;;;20.77;3.38;;;12.20;14.60;;;;;;5066188;28;20389;-66
2023/03/23 08:57:00;;;;;;;23.42;3.97;;;12.40;99.90;;;;;;5080962;28;20116;-67
2023/03/23 08:59:26;;;;;;;19.98;3.70;;;12.60;99.90;;;;;;5078561;28;20064;-68
2023/03/23 09:01:52;;;;;;;27.45;3.40;;;12.90;91.10;;;;;;5068731;28;20046;-66
2023/03/23 09:04:18;;;;;;;23.35;3.58;;;12.70;1.00;;;;;;5049121;28;20463;-66
2023/03/23 09:06:45;;;;;;;21.58;3.38;;;12.50;72.80;;;;;;5046325;28;20251;-66
2023/03/23 09:09:12;;;;;;;25.98;3.72;;;12.60;60.80;;;;;;5089118;28;20559;-66
2023/03/23 09:11:38;;;;;;;22.90;3.40;;;12.70;1.00;;;;;;5091503;28;20070;-65
2023/03/23 09:14:06;;;;;;;20.63;3.40;;;12.70;16.20;;;;;;5076345;28;20361;-66
2023/03/23 09:16:32;;;;;;;25.08;3.35;;;12.90;62.50;;;;;;5094829;28;20039;-66
2023/03/23 09:18:59;;;;;;;24.08;3.45;;;13.30;99.90;;;;;;5094025;28;20592;-65
2023/03/23 09:21:26;;;;;;;26.23;3.67;;;13.30;1.00;;;;;;5100737;27;20052;-64
2023/03/23 09:23:52;;;;;;;20.35;3.03;;;13.10;3.20;;;;;;5083218;28;20048;-64
2023/03/23 09:26:18;;;;;;;20.70;3.42;;;12.80;1.00;;;;;;5083396;28;20586;-65
2023/03/23 09:28:51;;;;;;;20.40;3.45;;;12.60;1.00;;;;;;5051189;28;20066;-66
2023/03/23 09:31:20;;;;;;;21.52;3.35;;;12.50;99.90;;;;;;5075930;28;20039;-64
2023/03/23 09:33:46;;;;;;;20.10;3.03;;;12.50;99.90;;;;;;5073925;28;20040;-64
2023/03/23 09:36:14;;;;;;;22.52;3.50;;;12.50;1.00;;;;;;5040796;28;20043;-65
2023/03/23 09:38:41;;;;;;;21.45;2.90;;;12.60;1.00;;;;;;5074077;28;20322;-67
2023/03/23 09:41:16;;;;;;;20.17;3.15;;;12.40;99.90;;;;;;5041375;28;20039;-66
2023/03/23 09:43:41;;;;;;;22.70;3.40;;;12.40;1.00;;;;;;5057436;28;20778;-66
2023/03/23 09:46:40;;;;;;;23.30;3.22;;;12.40;1.00;;;;;;5057049;28;20040;-64
2023/03/23 09:49:19;;;;;;;24.35;2.90;;;12.40;99.90;;;;;;5063702;28;20168;-63
2023/03/23 09:51:51;;;;;;;22.20;3.30;;;12.30;99.90;;;;;;5073586;28;20044;-64
2023/03/23 09:54:26;;;;;;;22.33;3.90;;;12.50;1.00;;;;;;5080777;28;20032;-64
2023/03/23 09:56:52;;;;;;;23.13;3.30;;;12.80;99.90;;;;;;5061292;28;20463;-65
2023/03/23 09:59:48;;;;;;;18.77;4.00;;;13.30;1.00;;;;;;5071102;28;20059;-65
2023/03/23 10:02:17;;;;;;;16.17;2.25;;;13.70;99.90;;;;;;5083644;28;20040;-64
2023/03/23 10:04:52;;;;;;;19.00;2.85;;;13.40;99.90;;;;;;5075838;28;20047;-67
2023/03/23 10:07:26;;;;;;;15.82;2.78;;;13.10;99.90;;;;;;5073673;28;20052;-66
2023/03/23 10:10:05;;;;;;;18.05;2.95;;;12.60;99.90;;;;;;5085834;28;20056;-64
2023/03/23 10:12:45;;;;;;;18.88;2.92;;;12.60;99.90;;;;;;5075846;28;20044;-65
2023/03/23 10:15:27;;;;;;;20.58;2.72;;;12.30;99.90;;;;;;5090526;28;20036;-65
2023/03/23 10:18:08;;;;;;;19.23;2.95;;;12.00;99.90;;;;;;5084160;28;20047;-65
2023/03/23 10:20:40;;;;;;;18.75;2.38;;;12.20;99.90;;;;;;5062891;28;20044;-64
2023/03/23 10:23:14;;;;;;;16.80;2.10;;;12.30;99.90;;;;;;5079181;28;20055;-66
2023/03/23 10:26:09;;;;;;;15.25;2.28;;;12.40;99.90;;;;;;5080363;28;20285;-64
2023/03/23 10:28:56;;;;;;;19.98;3.10;;;12.50;99.90;;;;;;5089295;28;20311;-64
2023/03/23 10:31:28;;;;;;;18.67;3.15;;;13.10;99.90;;;;;;5078072;28;20304;-65
2023/03/23 10:33:58;;;;;;;19.23;3.05;;;13.70;99.90;;;;;;5078926;28;20055;-64
2023/03/23 10:36:37;;;;;;;20.55;3.17;;;14.40;99.90;;;;;;5076048;28;20035;-64
2023/03/23 10:39:22;;;;;;;15.65;2.50;;;14.70;99.90;;;;;;5079755;28;20055;-65
2023/03/23 10:41:48;;;;;;;20.48;2.85;;;15.20;99.90;;;;;;5077414;28;20067;-64
2023/03/23 10:44:25;;;;;;;15.80;2.30;;;15.70;99.90;;;;;;5074535;28;20127;-64
2023/03/23 10:47:04;;;;;;;16.48;2.60;;;16.30;99.90;;;;;;5079251;28;20554;-64
2023/03/23 10:49:57;;;;;;;13.68;2.03;;;16.20;99.90;;;;;;5079174;28;20549;-65
2023/03/23 10:52:35;;;;;;;16.83;2.42;;;16.60;49.70;;;;;;5080665;28;20135;-65
2023/03/23 10:55:11;;;;;;;17.15;2.33;;;16.90;99.90;;;;;;5077388;28;20040;-65
2023/03/23 10:57:40;;;;;;;15.13;2.67;;;16.70;99.90;;;;;;5079192;28;20032;-64
2023/03/23 11:00:18;;;;;;;15.35;2.08;;;16.60;4.80;;;;;;5081070;28;20522;-64
2023/03/23 11:03:02;;;;;;;16.40;1.98;;;16.10;99.90;;;;;;5080711;28;20067;-64
2023/03/23 11:05:40;;;;;;;11.32;1.95;;;15.20;1.00;;;;;;5080489;28;20034;-64
2023/03/23 11:08:21;;;;;;;13.82;1.95;;;14.90;21.90;;;;;;5078260;28;20050;-64
2023/03/23 11:10:52;;;;;;;16.92;2.38;;;15.10;90.20;;;;;;5077645;28;20047;-65
2023/03/23 11:13:20;;;;;;;16.65;2.20;;;15.40;64.90;;;;;;5081491;28;20505;-65
2023/03/23 11:15:47;;;;;;;16.65;2.47;;;15.20;68.10;;;;;;5077155;28;20513;-64
2023/03/23 11:18:26;;;;;;;19.48;2.50;;;15.20;99.90;;;;;;5077379;28;20039;-64
2023/03/23 11:20:56;;;;;;;18.15;2.70;;;15.00;67.00;;;;;;5079018;28;20596;-65
2023/03/23 11:23:41;;;;;;;17.08;2.70;;;14.90;99.90;;;;;;5062239;28;20048;-65
2023/03/23 11:26:15;;;;;;;15.40;2.17;;;15.30;89.60;;;;;;5079316;28;20778;-65
2023/03/23 11:28:54;;;;;;;18.08;2.97;;;15.70;77.60;;;;;;5075579;28;20247;-63
2023/03/23 11:31:27;;;;;;;19.65;2.80;;;15.70;99.90;;;;;;5083680;28;20095;-64
2023/03/23 11:34:01;;;;;;;16.27;2.38;;;15.10;99.90;;;;;;5080515;28;20477;-64
2023/03/23 11:36:54;;;;;;;16.83;2.50;;;14.60;92.50;;;;;;5078038;28;20055;-64
2023/03/23 11:39:27;;;;;;;14.10;2.28;;;14.20;99.90;;;;;;5072948;28;20097;-64
2023/03/23 11:41:56;;;;;;;16.92;3.05;;;14.30;99.90;;;;;;5084694;28;20074;-65
2023/03/23 11:44:23;;;;;;;18.33;3.03;;;14.70;99.90;;;;;;5058743;28;20482;-65
2023/03/23 11:47:00;;;;;;;15.82;2.13;;;15.20;99.90;;;;;;5080854;28;20659;-63
2023/03/23 11:49:37;;;;;;;17.48;2.45;;;14.70;99.90;;;;;;5081564;28;20048;-64
2023/03/23 11:52:31;;;;;;;23.08;2.70;;;14.60;99.90;;;;;;5083865;28;20031;-63
2023/03/23 11:55:09;;;;;;;14.27;2.20;;;14.80;99.90;;;;;;5081750;28;20311;-64
2023/03/23 11:57:35;;;;;;;17.75;2.58;;;15.00;99.90;;;;;;5080531;28;20043;-63
2023/03/23 12:00:11;;;;;;;19.45;2.33;;;14.60;99.90;;;;;;5050835;28;20097;-64
2023/03/23 12:02:45;;;;;;;15.95;2.42;;;14.80;99.90;;;;;;5087245;28;20067;-64
2023/03/23 12:05:32;;;;;;;19.35;2.55;;;15.00;99.90;;;;;;5090977;28;20559;-64
2023/03/23 12:08:22;;;;;;;20.92;2.55;;;14.80;99.90;;;;;;5070607;28;20211;-64
2023/03/23 12:11:20;;;;;;;13.88;2.15;;;14.50;99.90;;;;;;5085424;28;20040;-63
2023/03/23 12:14:00;;;;;;;16.67;2.40;;;14.10;99.90;;;;;;5068850;28;20086;-63
2023/03/23 12:16:50;;;;;;;14.15;1.80;;;14.20;99.90;;;;;;5070129;28;20051;-64
2023/03/23 12:19:17;;;;;;;13.20;1.55;;;15.00;99.90;;;;;;5072665;28;20351;-64
2023/03/23 12:21:55;;;;;;;11.38;1.45;;;15.70;99.90;;;;;;5076980;28;20291;-64
2023/03/23 12:24:30;;;;;;;12.25;1.50;;;16.20;1.00;;;;;;5080423;28;20459;-65
2023/03/23 12:27:08;;;;;;;10.23;1.23;;;16.10;99.90;;;;;;5083090;28;20044;-64
2023/03/23 12:29:37;;;;;;;8.85;0.90;;;16.70;99.90;;;;;;5071645;28;20044;-63
2023/03/23 12:32:30;;;;;;;9.98;1.30;;;17.10;99.90;;;;;;5083375;28;20481;-64
2023/03/23 12:35:02;;;;;;;11.00;1.45;;;16.90;99.90;;;;;;5091730;28;20044;-64
2023/03/23 12:38:02;;;;;;;8.23;1.00;;;16.60;99.90;;;;;;5087074;28;20075;-64
2023/03/23 12:40:46;;;;;;;10.50;1.17;;;16.20;99.90;;;;;;5072395;28;20094;-65
2023/03/23 12:43:31;;;;;;;9.80;1.00;;;15.70;99.90;;;;;;5078372;28;20491;-64
2023/03/23 12:46:16;;;;;;;9.88;1.00;;;15.70;99.90;;;;;;5082527;28;20401;-66
2023/03/23 12:49:25;;;;;;;10.50;1.00;;;16.10;99.90;;;;;;5078643;28;20305;-66
2023/03/23 12:52:00;;;;;;;7.15;0.80;;;17.00;99.90;;;;;;5057023;28;20113;-66
2023/03/23 12:54:40;;;;;;;8.82;0.85;;;16.90;99.90;;;;;;5092183;28;20555;-64
2023/03/23 12:57:12;;;;;;;10.15;1.13;;;16.60;99.90;;;;;;5083045;28;20055;-64
2023/03/23 12:59:55;;;;;;;11.40;1.05;;;16.60;99.90;;;;;;5094149;28;20036;-64